createdAt,value
2018-09-28T00:01:29.187Z,18.43
2018-09-28T00:03:57.899Z,18.23
2018-09-28T00:06:26.706Z,18.77
2018-09-28T00:08:55.490Z,16.83
2018-09-28T00:11:24.282Z,17.50
2018-09-28T00:13:53.035Z,16.93
2018-09-28T00:16:21.757Z,16.73
2018-09-28T00:18:50.496Z,14.50
2018-09-28T00:21:19.328Z,16.00
2018-09-28T00:23:48.082Z,15.67
2018-09-28T00:26:16.840Z,14.53
2018-09-28T00:28:45.581Z,16.53
2018-09-28T00:31:14.403Z,15.83
2018-09-28T00:33:43.078Z,14.90
2018-09-28T00:36:12.696Z,13.80
2018-09-28T00:38:41.409Z,13.77
2018-09-28T00:41:10.230Z,12.97
2018-09-28T00:43:39.067Z,12.23
2018-09-28T00:46:07.802Z,10.73
2018-09-28T00:48:36.651Z,9.60
2018-09-28T00:51:05.538Z,8.23
2018-09-28T00:53:34.205Z,6.70
2018-09-28T00:56:02.941Z,6.73
2018-09-28T00:58:31.623Z,5.20
2018-09-28T01:01:00.411Z,5.30
2018-09-28T01:03:29.098Z,5.17
2018-09-28T01:05:57.851Z,6.10
2018-09-28T01:08:26.643Z,5.90
2018-09-28T01:10:55.411Z,5.30
2018-09-28T01:13:24.198Z,5.60
2018-09-28T01:15:52.946Z,5.57
2018-09-28T01:18:21.741Z,5.17
2018-09-28T01:20:50.674Z,5.17
2018-09-28T01:23:19.474Z,5.23
2018-09-28T01:25:48.311Z,5.63
2018-09-28T01:28:17.159Z,5.47
2018-09-28T01:30:46.025Z,5.80
2018-09-28T01:33:14.920Z,5.60
2018-09-28T01:35:43.626Z,5.33
2018-09-28T01:38:12.364Z,5.20
2018-09-28T01:40:41.184Z,4.50
2018-09-28T01:43:09.867Z,4.20
2018-09-28T01:45:38.549Z,4.40
2018-09-28T01:48:07.396Z,4.33
2018-09-28T01:50:36.214Z,4.30
2018-09-28T01:53:04.901Z,4.47
2018-09-28T01:55:33.582Z,3.27
2018-09-28T01:58:02.337Z,3.93
2018-09-28T02:00:31.098Z,3.27
2018-09-28T02:03:00.036Z,3.27
2018-09-28T02:05:28.771Z,3.43
2018-09-28T02:07:57.453Z,2.60
2018-09-28T02:10:26.374Z,2.63
2018-09-28T02:12:55.120Z,2.93
2018-09-28T02:15:23.913Z,3.00
2018-09-28T02:17:52.574Z,2.33
2018-09-28T02:20:21.276Z,4.03
2018-09-28T02:22:50.026Z,3.03
2018-09-28T02:25:18.835Z,3.27
2018-09-28T02:27:48.263Z,3.20
2018-09-28T02:30:17.009Z,3.13
2018-09-28T02:32:45.727Z,3.03
2018-09-28T02:35:14.856Z,4.13
2018-09-28T02:37:44.111Z,3.03
2018-09-28T02:40:12.817Z,3.20
2018-09-28T02:42:41.575Z,3.53
2018-09-28T02:45:10.641Z,3.23
2018-09-28T02:47:39.478Z,4.03
2018-09-28T02:50:08.371Z,3.50
2018-09-28T02:52:37.989Z,3.73
2018-09-28T02:55:06.730Z,3.40
2018-09-28T02:57:35.529Z,3.00
2018-09-28T03:00:04.480Z,3.33
2018-09-28T03:02:33.396Z,3.83
2018-09-28T03:05:02.101Z,3.37
2018-09-28T03:07:31.696Z,3.50
2018-09-28T03:10:00.722Z,2.93
2018-09-28T03:12:29.495Z,3.37
2018-09-28T03:14:58.228Z,3.57
2018-09-28T03:17:26.950Z,3.10
2018-09-28T03:19:55.646Z,2.83
2018-09-28T03:22:24.570Z,3.57
2018-09-28T03:24:53.301Z,3.00
2018-09-28T03:27:22.060Z,2.60
2018-09-28T03:29:50.743Z,2.70
2018-09-28T03:32:19.560Z,2.33
2018-09-28T03:34:48.291Z,2.27
2018-09-28T03:37:17.017Z,2.00
2018-09-28T03:39:45.678Z,2.30
2018-09-28T03:42:15.247Z,2.20
2018-09-28T03:44:43.969Z,2.67
2018-09-28T03:47:12.776Z,1.83
2018-09-28T03:49:41.511Z,1.60
2018-09-28T03:52:10.368Z,2.20
2018-09-28T03:54:39.297Z,2.23
2018-09-28T03:57:08.186Z,1.97
2018-09-28T03:59:36.929Z,1.50
2018-09-28T04:02:05.748Z,1.67
2018-09-28T04:04:34.583Z,1.30
2018-09-28T04:07:03.291Z,1.00
2018-09-28T04:09:31.998Z,1.53
2018-09-28T04:12:00.761Z,1.30
2018-09-28T04:14:29.450Z,1.63
2018-09-28T04:16:58.150Z,1.43
2018-09-28T04:19:27.027Z,1.43
2018-09-28T04:21:59.450Z,1.40
2018-09-28T04:24:29.101Z,1.40
2018-09-28T04:26:57.791Z,1.10
2018-09-28T04:29:26.858Z,1.30
2018-09-28T04:31:55.728Z,1.53
2018-09-28T04:34:24.572Z,1.63
2018-09-28T04:36:53.331Z,1.40
2018-09-28T04:39:22.031Z,1.17
2018-09-28T04:41:50.710Z,1.87
2018-09-28T04:44:19.351Z,1.27
2018-09-28T04:46:48.080Z,2.40
2018-09-28T04:49:16.797Z,1.47
2018-09-28T04:51:45.589Z,1.30
2018-09-28T04:54:14.244Z,1.77
2018-09-28T04:56:42.949Z,1.50
2018-09-28T04:59:11.623Z,2.10
2018-09-28T05:01:40.387Z,1.90
2018-09-28T05:04:09.104Z,2.63
2018-09-28T05:06:38.409Z,2.03
2018-09-28T05:09:10.081Z,1.80
2018-09-28T05:11:38.885Z,2.60
2018-09-28T05:14:07.700Z,2.00
2018-09-28T05:16:36.751Z,2.83
2018-09-28T05:19:05.534Z,2.47
2018-09-28T05:21:34.524Z,2.57
2018-09-28T05:24:03.240Z,2.77
2018-09-28T05:26:31.935Z,2.37
2018-09-28T05:29:00.701Z,2.10
2018-09-28T05:31:29.538Z,2.37
2018-09-28T05:33:58.364Z,2.27
2018-09-28T05:36:27.092Z,2.07
2018-09-28T05:38:56.085Z,2.67
2018-09-28T05:41:25.009Z,2.23
2018-09-28T05:43:53.798Z,1.83
2018-09-28T05:46:22.528Z,1.93
2018-09-28T05:48:51.261Z,2.43
2018-09-28T05:51:20.223Z,2.30
2018-09-28T05:53:48.986Z,2.30
2018-09-28T05:56:17.735Z,2.47
2018-09-28T05:58:51.597Z,2.23
2018-09-28T06:01:27.424Z,2.70
2018-09-28T06:04:01.302Z,2.33
2018-09-28T06:06:30.073Z,2.13
2018-09-28T06:08:58.940Z,2.30
2018-09-28T06:11:27.745Z,2.43
2018-09-28T06:13:56.532Z,2.43
2018-09-28T06:16:25.275Z,2.20
2018-09-28T06:18:53.957Z,2.13
2018-09-28T06:21:22.731Z,2.10
2018-09-28T06:23:51.469Z,2.07
2018-09-28T06:26:20.291Z,2.27
2018-09-28T06:28:49.173Z,2.83
2018-09-28T06:31:18.011Z,2.30
2018-09-28T06:33:46.736Z,2.50
2018-09-28T06:36:15.513Z,1.97
2018-09-28T06:38:44.208Z,2.43
2018-09-28T06:41:13.234Z,1.87
2018-09-28T06:43:42.023Z,2.03
2018-09-28T06:46:10.846Z,3.07
2018-09-28T06:48:39.630Z,2.40
2018-09-28T06:51:08.463Z,2.23
2018-09-28T06:53:37.207Z,2.30
2018-09-28T06:56:05.995Z,2.00
2018-09-28T06:58:34.915Z,2.33
2018-09-28T07:01:03.772Z,2.83
2018-09-28T07:03:32.616Z,2.77
2018-09-28T07:06:01.342Z,2.10
2018-09-28T07:08:30.180Z,2.37
2018-09-28T07:10:59.838Z,2.40
2018-09-28T07:13:28.583Z,2.70
2018-09-28T07:15:57.240Z,2.03
2018-09-28T07:18:26.127Z,2.77
2018-09-28T07:20:54.760Z,2.50
2018-09-28T07:23:23.463Z,2.50
2018-09-28T07:25:52.177Z,2.37
2018-09-28T07:28:21.823Z,2.20
2018-09-28T07:30:50.612Z,2.60
2018-09-28T07:33:19.332Z,2.90
2018-09-28T07:35:48.071Z,2.10
2018-09-28T07:38:16.765Z,2.20
2018-09-28T07:40:45.677Z,2.20
2018-09-28T07:43:14.493Z,2.33
2018-09-28T07:45:43.291Z,1.60
2018-09-28T07:48:12.115Z,2.20
2018-09-28T07:50:40.990Z,2.40
2018-09-28T07:53:09.770Z,2.20
2018-09-28T07:55:38.585Z,2.17
2018-09-28T07:58:07.662Z,2.40
2018-09-28T08:00:36.417Z,2.43
2018-09-28T08:03:05.202Z,2.00
2018-09-28T08:05:33.939Z,2.30
2018-09-28T08:08:02.783Z,2.07
2018-09-28T08:10:31.573Z,1.83
2018-09-28T08:13:00.862Z,1.87
2018-09-28T08:15:29.765Z,2.30
2018-09-28T08:17:58.630Z,2.23
2018-09-28T08:20:27.782Z,2.10
2018-09-28T08:22:56.523Z,2.03
2018-09-28T08:25:26.066Z,1.70
2018-09-28T08:27:55.037Z,1.67
2018-09-28T08:30:24.029Z,2.07
2018-09-28T08:32:52.951Z,2.73
2018-09-28T08:35:21.677Z,2.23
2018-09-28T08:37:50.409Z,1.80
2018-09-28T08:40:19.372Z,1.73
2018-09-28T08:42:48.140Z,2.00
2018-09-28T08:45:16.866Z,4.70
2018-09-28T08:47:45.802Z,2.13
2018-09-28T08:50:14.726Z,2.13
2018-09-28T08:52:43.478Z,2.67
2018-09-28T08:55:12.174Z,2.10
2018-09-28T08:57:40.894Z,2.43
2018-09-28T09:00:11.027Z,2.60
2018-09-28T09:02:40.342Z,2.10
2018-09-28T09:05:09.376Z,1.90
2018-09-28T09:07:38.411Z,2.03
2018-09-28T09:10:07.426Z,2.13
2018-09-28T09:12:36.429Z,1.70
2018-09-28T09:15:05.754Z,2.30
2018-09-28T09:17:34.835Z,2.17
2018-09-28T09:20:03.866Z,1.70
2018-09-28T09:22:32.820Z,1.80
2018-09-28T09:25:01.691Z,1.60
2018-09-28T09:27:30.760Z,1.90
2018-09-28T09:29:59.777Z,1.80
2018-09-28T09:32:28.830Z,1.73
2018-09-28T09:34:57.799Z,1.70
2018-09-28T09:37:27.172Z,1.70
2018-09-28T09:39:56.073Z,1.40
2018-09-28T09:42:25.222Z,1.87
2018-09-28T09:44:55.228Z,2.00
2018-09-28T09:47:24.099Z,2.07
2018-09-28T09:49:54.691Z,1.57
2018-09-28T09:52:23.506Z,1.30
2018-09-28T09:54:52.468Z,1.93
2018-09-28T09:57:21.476Z,1.40
2018-09-28T09:59:50.885Z,1.40
2018-09-28T10:02:25.247Z,1.77
2018-09-28T10:04:54.213Z,1.63
2018-09-28T10:07:23.441Z,1.37
2018-09-28T10:09:52.409Z,1.47
2018-09-28T10:12:21.502Z,2.07
2018-09-28T10:14:50.219Z,1.83
2018-09-28T10:17:19.050Z,1.70
2018-09-28T10:19:49.136Z,1.83
2018-09-28T10:22:18.156Z,1.57
2018-09-28T10:24:47.187Z,1.73
2018-09-28T10:27:15.988Z,1.80
2018-09-28T10:29:44.853Z,1.20
2018-09-28T10:32:13.824Z,1.83
2018-09-28T10:34:42.947Z,1.50
2018-09-28T10:37:11.832Z,1.70
2018-09-28T10:39:40.797Z,1.13
2018-09-28T10:42:09.605Z,1.63
2018-09-28T10:44:38.318Z,1.43
2018-09-28T10:47:07.256Z,1.40
2018-09-28T10:49:36.182Z,1.57
2018-09-28T10:52:05.353Z,1.50
2018-09-28T10:54:34.109Z,1.40
2018-09-28T10:57:03.151Z,2.10
2018-09-28T10:59:32.226Z,1.57
2018-09-28T11:02:01.852Z,1.53
2018-09-28T11:04:30.683Z,1.53
2018-09-28T11:06:59.674Z,1.40
2018-09-28T11:09:29.583Z,1.30
2018-09-28T11:11:58.543Z,1.50
2018-09-28T11:14:29.170Z,2.03
2018-09-28T11:16:58.292Z,1.67
2018-09-28T11:19:27.409Z,1.70
2018-09-28T11:21:56.544Z,1.57
2018-09-28T11:24:25.457Z,1.90
2018-09-28T11:26:54.498Z,1.67
2018-09-28T11:29:24.581Z,2.00
2018-09-28T11:31:53.616Z,1.77
2018-09-28T11:34:22.680Z,2.47
2018-09-28T11:36:52.252Z,1.60
2018-09-28T11:39:21.223Z,1.63
2018-09-28T11:41:50.050Z,1.00
2018-09-28T11:44:18.839Z,1.37
2018-09-28T11:46:47.608Z,2.43
2018-09-28T11:49:16.484Z,1.20
2018-09-28T11:51:45.286Z,1.17
2018-09-28T11:54:13.985Z,0.97
2018-09-28T11:56:42.739Z,1.20
2018-09-28T11:59:11.759Z,1.27
2018-09-28T12:01:40.782Z,1.83
2018-09-28T12:04:10.742Z,1.53
2018-09-28T12:06:39.767Z,1.20
2018-09-28T12:09:10.852Z,1.33
2018-09-28T12:11:39.595Z,1.63
2018-09-28T12:14:08.263Z,1.20
2018-09-28T12:16:36.976Z,1.20
2018-09-28T12:19:05.776Z,1.00
2018-09-28T12:21:34.584Z,1.40
2018-09-28T12:24:03.967Z,1.20
2018-09-28T12:26:32.772Z,0.87
2018-09-28T12:29:01.682Z,1.40
2018-09-28T12:31:30.647Z,1.13
2018-09-28T12:33:59.566Z,1.10
2018-09-28T12:36:28.653Z,0.83
2018-09-28T12:38:57.303Z,0.93
2018-09-28T12:41:26.431Z,1.27
2018-09-28T12:43:55.156Z,0.90
2018-09-28T12:46:23.959Z,1.00
2018-09-28T12:48:52.861Z,0.73
2018-09-28T12:51:21.532Z,1.00
2018-09-28T12:53:50.457Z,1.13
2018-09-28T12:56:19.548Z,1.10
2018-09-28T12:58:48.453Z,1.70
2018-09-28T13:01:17.541Z,1.30
2018-09-28T13:03:46.393Z,1.50
2018-09-28T13:06:15.568Z,1.10
2018-09-28T13:08:44.674Z,1.40
2018-09-28T13:11:13.922Z,1.47
2018-09-28T13:13:42.802Z,1.40
2018-09-28T13:16:11.830Z,1.77
2018-09-28T13:18:41.213Z,1.30
2018-09-28T13:21:10.148Z,1.70
2018-09-28T13:23:39.043Z,1.23
2018-09-28T13:26:07.881Z,2.77
2018-09-28T13:28:36.784Z,1.47
2018-09-28T13:31:05.754Z,1.70
2018-09-28T13:33:35.117Z,1.53
2018-09-28T13:36:03.900Z,1.63
2018-09-28T13:38:33.723Z,1.50
2018-09-28T13:41:02.562Z,1.70
2018-09-28T13:43:31.540Z,1.50
2018-09-28T13:46:00.350Z,1.30
2018-09-28T13:48:29.152Z,1.63
2018-09-28T13:50:58.007Z,1.17
2018-09-28T13:53:27.713Z,1.90
2018-09-28T13:55:56.550Z,1.97
2018-09-28T13:58:25.416Z,1.77
2018-09-28T14:00:54.233Z,1.80
2018-09-28T14:03:22.913Z,1.80
2018-09-28T14:05:51.678Z,1.33
2018-09-28T14:08:20.635Z,1.23
2018-09-28T14:10:49.531Z,1.60
2018-09-28T14:13:18.210Z,1.17
2018-09-28T14:15:47.098Z,1.30
2018-09-28T14:18:15.948Z,1.20
2018-09-28T14:20:45.739Z,1.17
2018-09-28T14:23:14.544Z,1.70
2018-09-28T14:25:43.267Z,1.40
2018-09-28T14:28:12.328Z,1.30
2018-09-28T14:30:41.336Z,1.57
2018-09-28T14:33:10.022Z,1.00
2018-09-28T14:35:38.929Z,1.17
2018-09-28T14:38:08.004Z,1.10
2018-09-28T14:40:36.756Z,1.13
2018-09-28T14:43:05.474Z,1.50
2018-09-28T14:45:34.300Z,1.33
2018-09-28T14:48:03.231Z,1.60
2018-09-28T14:50:32.061Z,1.20
2018-09-28T14:53:00.820Z,1.30
2018-09-28T14:55:29.779Z,3.10
2018-09-28T14:57:58.623Z,1.13
2018-09-28T15:00:27.619Z,1.33
2018-09-28T15:02:56.341Z,1.10
2018-09-28T15:05:25.267Z,1.50
2018-09-28T15:07:53.934Z,1.40
2018-09-28T15:10:23.011Z,0.73
2018-09-28T15:12:51.674Z,0.90
2018-09-28T15:15:20.413Z,1.10
2018-09-28T15:17:49.139Z,1.20
2018-09-28T15:20:17.898Z,1.87
2018-09-28T15:22:47.626Z,1.77
2018-09-28T15:25:16.379Z,1.27
2018-09-28T15:27:45.032Z,1.50
2018-09-28T15:30:13.802Z,1.53
2018-09-28T15:32:42.498Z,1.40
2018-09-28T15:35:11.240Z,1.10
2018-09-28T15:37:39.942Z,1.57
2018-09-28T15:40:08.700Z,2.10
2018-09-28T15:42:37.550Z,1.47
2018-09-28T15:45:06.290Z,1.93
2018-09-28T15:47:35.023Z,1.50
2018-09-28T15:50:03.730Z,1.33
2018-09-28T15:52:32.622Z,1.60
2018-09-28T15:55:01.427Z,1.50
2018-09-28T15:57:30.230Z,1.33
2018-09-28T15:59:59.036Z,1.53
2018-09-28T16:02:27.998Z,2.00
2018-09-28T16:04:56.689Z,1.47
2018-09-28T16:07:25.663Z,1.30
2018-09-28T16:09:54.494Z,1.80
2018-09-28T16:12:23.558Z,1.73
2018-09-28T16:14:52.453Z,1.23
2018-09-28T16:17:21.287Z,1.40
2018-09-28T16:19:50.084Z,1.27
2018-09-28T16:22:19.859Z,1.63
2018-09-28T16:24:48.801Z,1.40
2018-09-28T16:27:17.511Z,1.10
2018-09-28T16:29:46.738Z,1.60
2018-09-28T16:32:15.455Z,1.80
2018-09-28T16:34:44.317Z,1.73
2018-09-28T16:37:13.005Z,1.60
2018-09-28T16:39:42.794Z,1.50
2018-09-28T16:42:11.839Z,2.13
2018-09-28T16:44:41.343Z,1.40
2018-09-28T16:47:10.135Z,1.17
2018-09-28T16:49:38.853Z,1.57
2018-09-28T16:52:07.786Z,1.07
2018-09-28T16:54:36.453Z,1.40
2018-09-28T16:57:05.279Z,1.67
2018-09-28T16:59:34.210Z,1.83
2018-09-28T17:02:04.356Z,1.73
2018-09-28T17:04:33.199Z,1.40
2018-09-28T17:07:02.218Z,1.03
2018-09-28T17:09:30.950Z,1.40
2018-09-28T17:11:59.933Z,1.20
2018-09-28T17:14:28.706Z,1.57
2018-09-28T17:16:57.537Z,1.07
2018-09-28T17:19:27.347Z,1.33
2018-09-28T17:21:56.313Z,1.20
2018-09-28T17:24:25.223Z,1.30
2018-09-28T17:26:54.165Z,1.40
2018-09-28T17:29:22.932Z,1.40
2018-09-28T17:31:51.926Z,1.60
2018-09-28T17:34:20.838Z,1.23
2018-09-28T17:36:49.578Z,1.17
2018-09-28T17:39:18.321Z,1.20
2018-09-28T17:41:47.172Z,1.30
2018-09-28T17:44:16.073Z,1.10
2018-09-28T17:46:48.399Z,1.50
2018-09-28T17:49:17.826Z,1.73
2018-09-28T17:51:46.576Z,1.63
2018-09-28T17:54:15.367Z,1.50
2018-09-28T17:56:44.016Z,1.60
2018-09-28T17:59:14.273Z,1.40
2018-09-28T18:01:43.163Z,1.77
2018-09-28T18:04:11.838Z,1.27
2018-09-28T18:06:40.924Z,1.70
2018-09-28T18:09:10.697Z,1.50
2018-09-28T18:11:39.569Z,1.50
2018-09-28T18:14:08.433Z,1.67
2018-09-28T18:16:37.103Z,2.43
2018-09-28T18:19:05.884Z,2.03
2018-09-28T18:21:34.771Z,1.47
2018-09-28T18:24:03.552Z,1.53
2018-09-28T18:26:32.378Z,1.67
2018-09-28T18:29:01.106Z,1.40
2018-09-28T18:31:29.912Z,1.40
2018-09-28T18:33:58.698Z,1.80
2018-09-28T18:36:29.114Z,1.30
2018-09-28T18:38:57.887Z,1.60
2018-09-28T18:41:26.768Z,1.40
2018-09-28T18:43:55.536Z,1.27
2018-09-28T18:46:24.733Z,1.50
2018-09-28T18:48:54.127Z,1.70
2018-09-28T18:51:23.581Z,1.50
2018-09-28T18:53:52.355Z,1.57
2018-09-28T18:56:21.053Z,1.50
2018-09-28T18:58:50.387Z,1.67
2018-09-28T19:01:19.222Z,1.67
2018-09-28T19:03:47.936Z,1.50
2018-09-28T19:06:16.883Z,2.13
2018-09-28T19:08:45.607Z,2.40
2018-09-28T19:11:14.467Z,2.10
2018-09-28T19:13:43.331Z,1.93
2018-09-28T19:16:12.031Z,2.20
2018-09-28T19:18:40.832Z,2.53
2018-09-28T19:21:09.643Z,1.93
2018-09-28T19:23:38.348Z,1.90
2018-09-28T19:26:07.114Z,1.93
2018-09-28T19:28:36.298Z,1.93
2018-09-28T19:31:05.377Z,1.60
2018-09-28T19:33:34.110Z,1.67
2018-09-28T19:36:03.647Z,1.47
2018-09-28T19:38:32.807Z,1.70
2018-09-28T19:41:01.640Z,1.30
2018-09-28T19:43:30.489Z,1.67
2018-09-28T19:45:59.246Z,2.07
2018-09-28T19:48:28.004Z,1.33
2018-09-28T19:50:57.048Z,1.47
2018-09-28T19:53:25.885Z,1.87
2018-09-28T19:55:54.625Z,1.67
2018-09-28T19:58:23.478Z,1.50
2018-09-28T20:00:52.421Z,2.33
2018-09-28T20:03:21.198Z,1.90
2018-09-28T20:05:50.586Z,1.70
2018-09-28T20:08:19.318Z,1.63
2018-09-28T20:10:48.055Z,1.87
2018-09-28T20:13:16.932Z,1.77
2018-09-28T20:15:45.633Z,1.77
2018-09-28T20:18:14.314Z,1.93
2018-09-28T20:20:43.369Z,1.60
2018-09-28T20:23:12.112Z,1.60
2018-09-28T20:25:43.631Z,1.67
2018-09-28T20:28:12.485Z,1.60
2018-09-28T20:30:41.300Z,1.67
2018-09-28T20:33:09.989Z,1.90
2018-09-28T20:35:40.065Z,1.87
2018-09-28T20:38:08.876Z,2.23
2018-09-28T20:40:37.674Z,1.70
2018-09-28T20:43:06.416Z,1.77
2018-09-28T20:45:35.178Z,2.10
2018-09-28T20:48:03.970Z,1.87
2018-09-28T20:50:32.848Z,1.90
2018-09-28T20:53:01.551Z,2.00
2018-09-28T20:55:30.185Z,1.67
2018-09-28T20:57:59.025Z,1.83
2018-09-28T21:00:27.862Z,2.10
2018-09-28T21:02:56.595Z,1.70
2018-09-28T21:05:26.021Z,1.70
2018-09-28T21:07:54.686Z,1.33
2018-09-28T21:10:23.515Z,1.80
2018-09-28T21:12:52.282Z,1.73
2018-09-28T21:15:20.995Z,1.97
2018-09-28T21:17:49.663Z,2.20
2018-09-28T21:20:18.401Z,2.17
2018-09-28T21:22:47.051Z,1.67
2018-09-28T21:25:15.738Z,2.47
2018-09-28T21:27:44.433Z,1.90
2018-09-28T21:30:13.103Z,1.63
2018-09-28T21:32:41.932Z,1.87
2018-09-28T21:35:10.843Z,2.20
2018-09-28T21:37:39.525Z,1.60
2018-09-28T21:40:08.419Z,2.17
2018-09-28T21:42:37.174Z,1.80
2018-09-28T21:45:05.875Z,2.07
2018-09-28T21:47:35.035Z,2.03
2018-09-28T21:50:04.128Z,2.00
2018-09-28T21:52:32.881Z,2.00
2018-09-28T21:55:01.540Z,1.83
2018-09-28T21:57:30.302Z,1.80
2018-09-28T21:59:59.370Z,2.00
2018-09-28T22:02:31.565Z,2.30
2018-09-28T22:05:00.341Z,2.27
2018-09-28T22:07:33.254Z,2.27
2018-09-28T22:10:01.986Z,2.43
2018-09-28T22:12:30.643Z,2.43
2018-09-28T22:14:59.258Z,1.80
2018-09-28T22:17:28.764Z,2.13
2018-09-28T22:19:57.510Z,1.80
2018-09-28T22:22:26.547Z,1.83
2018-09-28T22:24:55.206Z,1.90
2018-09-28T22:27:23.977Z,2.47
2018-09-28T22:29:52.640Z,2.37
2018-09-28T22:32:21.538Z,1.93
2018-09-28T22:34:56.948Z,2.10
2018-09-28T22:37:26.537Z,2.47
2018-09-28T22:39:55.325Z,2.50
2018-09-28T22:42:24.111Z,3.00
2018-09-28T22:44:52.820Z,3.13
2018-09-28T22:47:21.465Z,2.33
2018-09-28T22:49:50.150Z,2.60
2018-09-28T22:52:19.000Z,2.20
2018-09-28T22:54:47.802Z,2.03
2018-09-28T22:57:17.475Z,2.10
2018-09-28T22:59:46.234Z,1.70
2018-09-28T23:02:15.055Z,2.07
2018-09-28T23:04:43.793Z,2.37
2018-09-28T23:07:12.517Z,2.20
2018-09-28T23:09:41.930Z,2.20
2018-09-28T23:12:10.668Z,2.30
2018-09-28T23:14:39.492Z,1.80
2018-09-28T23:17:08.338Z,2.20
2018-09-28T23:19:37.864Z,2.10
2018-09-28T23:22:06.652Z,2.30
2018-09-28T23:24:35.353Z,2.33
2018-09-28T23:27:04.031Z,1.87
2018-09-28T23:29:32.749Z,1.80
2018-09-28T23:32:01.506Z,2.40
2018-09-28T23:34:30.210Z,2.30
2018-09-28T23:36:58.880Z,2.20
2018-09-28T23:39:27.749Z,2.10
2018-09-28T23:41:56.562Z,2.30
2018-09-28T23:44:25.311Z,2.00
2018-09-28T23:46:53.977Z,2.50
2018-09-28T23:49:22.736Z,1.97
2018-09-28T23:51:51.874Z,2.97
2018-09-28T23:54:20.593Z,2.40
2018-09-28T23:56:49.290Z,2.37
2018-09-28T23:59:18.048Z,1.90
